Latest Coastal Weather Observations for Dennes Point

IDT60701

Issued at 1:51 am EST Wednesday 5 August 2015 (issued every 10 minutes, with the page automatically refreshed every 10 minutes)

About coastal observations | Map of coastal stations | Coastal observations for TAS | Marine services | Other Formats
Station Details ID: 094255 Name: DENNES POINT Lat: -43.06 Lon: 147.36 Height: 5.67 m
Data from the previous 72 hours. | See also: Recent months at Dennes Point
Date/Time
EST
Temp

°C
Wind Pressure Rain
since 9am
mm
Weather Cloud Vis
km
Sea
Height
m
Swell
Dir
 
Speed
knots
Gust
knots
hPa Trend Height
m
Period
s
Dir
05/01:41am 4.7 WSW 18 30 997.3 - 5.6 - - - - - - -
05/01:30am 4.5 WSW 17 22 997.4 - 5.6 - - - - - - -
05/01:16am 4.8 WSW 16 26 997.3 - 5.6 - - - - - - -
05/01:00am 4.0 WSW 12 17 997.2 - 5.6 - - - - - - -
05/12:30am 4.8 SW 10 15 996.8 - 5.2 - - - - - - -
05/12:00am 5.5 WSW 17 27 996.6 - 5.0 Recent precip. - - - - - -
 
Date/Time
EST
Temp

°C
Wind Pressure Rain
since 9am
mm
Weather Cloud Vis
km
Sea
Height
m
Swell
Dir
 
Speed
knots
Gust
knots
hPa Trend Height
m
Period
s
Dir
04/11:47pm 5.7 WSW 17 28 996.0 - 5.0 - - - - - - -
04/11:30pm 5.7 W 12 17 996.2 - 4.8 - - - - - - -
04/11:00pm 6.6 W 16 20 996.0 - 4.2 - - - - - - -
04/10:30pm 6.5 W 15 19 996.6 - 4.2 - - - - - - -
04/10:00pm 6.4 WNW 13 20 996.4 - 4.2 - - - - - - -
04/09:30pm 6.1 WNW 8 12 996.8 - 4.2 - - - - - - -
04/09:00pm 6.5 WNW 14 20 997.9 - 4.0 Recent precip. - - - - - -
04/08:30pm 6.6 W 10 16 998.2 - 3.8 - - - - - - -
04/08:00pm 6.7 NW 11 17 998.3 - 3.8 - - - - - - -
04/07:30pm 7.0 WNW 16 22 998.8 - 3.2 - - - - - - -
04/07:00pm 7.0 W 16 21 998.6 - 3.2 - - - - - - -
04/06:30pm 7.8 WSW 12 22 998.8 - 1.6 - - - - - - -
04/06:00pm 8.8 WNW 9 15 999.0 - 0.4 Rain - - - - - -
04/05:30pm 9.1 WNW 10 15 998.9 - 0.0 - - - - - - -
04/05:00pm 9.7 WNW 8 14 999.5 - 0.0 - - - - - - -
04/04:30pm 9.7 NW 9 17 999.8 - 0.0 - - - - - - -
04/04:00pm 10.1 WNW 12 20 1000.8 - 0.0 - - - - - - -
04/03:30pm 10.1 NW 11 19 1001.5 - 0.0 - - - - - - -
04/03:00pm 10.5 NW 10 18 1002.1 - 0.0 - - - - - - -
04/02:30pm 10.5 WNW 10 18 1002.6 - 0.0 - - - - - - -
04/02:00pm 10.2 WNW 11 21 1003.3 - 0.0 - - - - - - -
04/01:30pm 10.2 N 10 18 1004.2 - 0.0 - - - - - - -
04/01:00pm 9.9 N 11 18 1004.9 - 0.0 - - - - - - -
04/12:30pm 9.6 N 12 20 1005.8 - 0.0 - - - - - - -
04/12:00pm 9.0 N 14 21 1006.6 - 0.0 - - - - - - -
04/11:30am 8.6 NNW 13 19 1007.5 - 0.0 - - - - - - -
04/11:00am 8.4 NW 14 21 1008.1 - 0.0 - - - - - - -
04/10:30am 8.3 NW 6 10 1008.6 - 0.0 - - - - - - -
04/10:00am 7.8 NW 10 16 1009.0 - 0.0 - - - - - - -
04/09:30am 7.6 NNW 12 16 1009.6 - 0.0 - - - - - - -
04/09:00am 7.3 NW 11 14 1010.1 - 4.4 - - - - - - -
04/08:30am 7.0 NW 11 18 1010.8 - 4.4 - - - - - - -
04/08:00am 7.0 WNW 14 20 1010.9 - 4.4 - - - - - - -
04/07:30am 6.9 WNW 14 20 1011.2 - 4.4 - - - - - - -
04/07:00am 6.8 WNW 10 16 1011.3 - 4.4 - - - - - - -
04/06:30am 6.5 WNW 8 15 1011.7 - 4.4 - - - - - - -
04/06:00am 6.4 WNW 8 16 1011.9 - 4.4 - - - - - - -
04/05:30am 6.0 NNW 3 7 1012.2 - 4.4 - - - - - - -
04/05:00am 5.4 WNW 2 6 1012.7 - 4.4 - - - - - - -
04/04:30am 6.0 NNW 5 8 1012.8 - 4.4 - - - - - - -
04/04:00am 4.7 WNW 1 4 1013.2 - 4.4 - - - - - - -
04/03:30am 5.5 NW 4 6 1013.4 - 4.4 - - - - - - -
04/03:00am 5.1 WNW 4 7 1013.9 - 4.4 - - - - - - -
04/02:30am 5.3 NW 5 9 1014.4 - 4.4 - - - - - - -
04/02:00am 5.1 WNW 4 6 1015.0 - 4.4 - - - - - - -
04/01:30am 5.5 NNW 5 7 1015.1 - 4.4 - - - - - - -
04/01:00am 5.4 NW 8 9 1015.3 - 4.4 - - - - - - -
04/12:30am 5.4 NNW 7 8 1015.8 - 4.4 - - - - - - -
04/12:00am 5.3 NW 7 9 1016.1 - 4.4 - - - - - - -
 
Date/Time
EST
Temp

°C
Wind Pressure Rain
since 9am
mm
Weather Cloud Vis
km
Sea
Height
m
Swell
Dir
 
Speed
knots
Gust
knots
hPa Trend Height
m
Period
s
Dir
03/11:30pm 4.8 W 11 14 1016.0 - 4.4 - - - - - - -
03/11:00pm 5.4 WNW 12 15 1016.0 - 4.4 - - - - - - -
03/10:30pm 4.9 W 10 13 1016.0 - 4.4 - - - - - - -
03/10:00pm 4.7 W 11 13 1016.1 - 4.4 - - - - - - -
03/09:30pm 5.0 WNW 14 17 1016.0 - 4.4 - - - - - - -
03/09:00pm 4.7 WNW 13 16 1015.6 - 4.4 - - - - - - -
03/08:30pm 4.9 NW 6 8 1015.6 - 4.4 - - - - - - -
03/08:00pm 5.1 SW 11 20 1015.0 - 4.4 - - - - - - -
03/07:30pm 4.8 WSW 16 20 1014.5 - 4.4 - - - - - - -
03/07:00pm 5.3 WSW 13 18 1014.4 - 4.4 - - - - - - -
03/06:30pm 4.8 SW 9 16 1013.7 - 4.4 - - - - - - -
03/06:00pm 4.9 SW 8 11 1013.2 - 4.2 Rain - - - - - -
03/05:30pm 4.9 SW 11 14 1012.4 - 4.0 - - - - - - -
03/05:00pm 5.5 SW 16 21 1011.7 - 2.8 - - - - - - -
03/04:30pm 5.1 SW 20 32 1010.2 - 2.6 - - - - - - -
03/04:20pm 5.1 SW 16 27 1010.3 - 2.4 - - - - - - -
03/04:00pm 5.6 WSW 16 20 1009.3 - 1.6 - - - - - - -
03/03:36pm 5.3 SW 19 30 1008.6 - 1.2 - - - - - - -
03/03:30pm 5.1 SW 17 26 1008.5 - 1.2 - - - - - - -
03/03:29pm 5.1 SW 16 26 1008.6 - 1.2 - - - - - - -
03/03:00pm 5.4 WSW 19 28 1007.3 - 0.8 Rain - - - - - -
03/02:57pm 5.6 WSW 17 28 1007.1 - 0.8 - - - - - - -
03/02:37pm 5.1 W 15 24 1006.6 - 0.6 - - - - - - -
03/02:30pm 4.9 W 10 16 1006.7 - 0.6 - - - - - - -
03/02:01pm 4.7 W 21 31 1005.8 - 0.4 - - - - - - -
03/02:00pm 5.0 W 20 26 1005.7 - 0.4 - - - - - - -
03/01:30pm 5.3 W 16 34 1004.8 - 0.2 - - - - - - -
03/01:13pm 6.8 WSW 18 28 1004.4 - 0.2 - - - - - - -
03/01:00pm 5.8 W 19 27 1003.7 - 0.2 - - - - - - -
03/12:57pm 5.9 W 16 27 1003.8 - 0.2 - - - - - - -
03/12:46pm 6.0 W 18 25 1003.8 - 0.2 - - - - - - -
03/12:42pm 6.6 WSW 20 31 1003.6 - 0.2 - - - - - - -
03/12:30pm 6.5 WSW 22 31 1003.0 - 0.2 - - - - - - -
03/12:21pm 6.9 WSW 15 25 1002.8 - 0.2 - - - - - - -
03/12:00pm 5.9 WSW 15 21 1002.8 - 0.2 - - - - - - -
03/11:30am 5.3 W 14 20 1002.6 - 0.2 - - - - - - -
03/11:00am 3.5 W 15 23 1002.4 - 0.2 - - - - - - -
03/10:30am 5.1 W 21 25 1001.8 - 0.0 - - - - - - -
03/10:00am 4.6 W 18 23 1000.8 - 0.0 - - - - - - -
03/09:30am 4.2 W 21 28 1000.4 - 0.0 - - - - - - -
03/09:00am 4.4 W 19 25 999.9 - 10.4 - - - - - - -
03/08:30am 3.2 WNW 12 16 999.8 - 10.4 - - - - - - -
03/08:00am 3.0 WNW 17 22 999.1 - 10.4 - - - - - - -
03/07:30am 2.4 WNW 14 21 998.8 - 9.4 - - - - - - -
03/07:00am 2.1 NNW 10 13 998.4 - 9.2 - - - - - - -
03/06:30am 1.2 WSW 17 25 998.7 - 9.0 - - - - - - -
03/06:00am 3.0 W 19 26 997.2 - 8.8 Recent precip. - - - - - -
03/05:30am 1.5 W 17 25 997.0 - 8.6 - - - - - - -
03/05:11am 3.2 WNW 17 29 997.0 - 8.2 - - - - - - -
03/05:00am 3.0 W 14 18 996.2 - 8.2 - - - - - - -
03/04:30am 3.0 WNW 12 18 996.0 - 8.2 - - - - - - -
03/04:00am 3.1 W 13 17 995.9 - 8.2 - - - - - - -
03/03:30am 3.1 WSW 18 27 995.3 - 8.0 - - - - - - -
03/03:05am 3.8 WNW 15 25 994.7 - 7.8 - - - - - - -
03/03:00am 4.1 WNW 12 17 994.6 - 7.8 - - - - - - -
03/02:30am 4.3 WNW 13 18 994.7 - 7.8 - - - - - - -
03/02:00am 4.0 WSW 13 17 994.5 - 7.8 - - - - - - -
03/01:30am 4.6 W 16 23 994.4 - 7.8 - - - - - - -
03/01:00am 4.1 W 14 19 993.7 - 7.8 - - - - - - -
03/12:30am 3.8 N 10 13 993.6 - 7.8 - - - - - - -
03/12:00am 3.9 NNW 10 15 994.2 - 7.8 Recent precip. - - - - - -
 
Date/Time
EST
Temp

°C
Wind Pressure Rain
since 9am
mm
Weather Cloud Vis
km
Sea
Height
m
Swell
Dir
 
Speed
knots
Gust
knots
hPa Trend Height
m
Period
s
Dir
02/11:30pm 3.8 WNW 13 19 994.4 - 7.6 - - - - - - -
02/11:00pm 3.7 NNW 11 21 994.5 - 7.6 - - - - - - -
02/10:30pm 3.5 NW 7 10 994.5 - 7.2 - - - - - - -
02/10:00pm 3.5 WNW 13 21 994.9 - 6.2 - - - - - - -
02/09:45pm 4.5 NW 14 23 995.3 - 3.6 - - - - - - -
02/09:30pm 5.7 NNW 8 13 994.5 - 3.0 - - - - - - -
02/09:00pm 4.8 W 5 9 994.5 - 3.0 - - - - - - -
02/08:30pm 5.8 NW 7 11 995.2 - 3.0 - - - - - - -
02/08:00pm 4.9 WNW 12 17 995.5 - 3.0 - - - - - - -
02/07:30pm 4.7 WNW 13 19 995.9 - 2.8 - - - - - - -
02/07:00pm 5.3 NW 15 28 995.8 - 2.4 - - - - - - -
02/06:30pm 4.7 WNW 10 14 995.6 - 2.4 - - - - - - -
02/06:00pm 4.6 NW 10 16 996.0 - 2.4 Recent precip. - - - - - -
02/05:49pm 4.4 W 13 22 996.0 - 2.4 - - - - - - -
02/05:35pm 4.1 W 22 33 996.0 - 2.2 - - - - - - -
02/05:30pm 4.7 W 23 33 996.2 - 2.0 - - - - - - -
02/05:00pm 5.4 W 21 27 995.1 - 2.0 - - - - - - -
02/04:30pm 5.8 W 19 26 994.9 - 2.0 - - - - - - -
02/04:00pm 6.1 WNW 11 19 994.7 - 2.0 - - - - - - -
02/03:30pm 5.7 WNW 10 16 994.8 - 2.0 - - - - - - -
02/03:00pm 5.7 WSW 15 22 995.5 - 2.0 - - - - - - -
02/02:30pm 5.9 WNW 8 15 995.3 - 2.0 - - - - - - -
02/02:12pm 5.8 W 17 28 995.1 - 2.0 - - - - - - -
02/02:00pm 6.2 W 16 22 995.1 - 2.0 - - - - - - -
02/01:30pm 6.8 W 14 18 994.9 - 2.0 - - - - - - -
02/01:00pm 6.8 W 14 19 994.6 - 2.0 - - - - - - -
02/12:30pm 8.6 W 25 34 993.8 - 0.4 - - - - - - -
02/12:25pm 9.4 W 18 31 993.5 - 0.0 - - - - - - -
02/12:22pm 10.7 WNW 15 27 993.5 - 0.0 - - - - - - -
02/12:00pm 11.7 NNW 14 20 993.1 - 0.0 - - - - - - -
02/11:30am 11.7 NW 17 29 993.5 - 0.0 - - - - - - -
02/11:03am 12.3 NNW 18 30 993.7 - 0.0 - - - - - - -
02/11:00am 12.2 NNW 18 24 993.8 - 0.0 - - - - - - -
02/10:30am 11.7 NNW 20 25 994.2 - 0.0 - - - - - - -
02/10:08am 11.5 NNW 19 31 994.7 - 0.0 - - - - - - -
02/10:00am 11.4 NW 19 26 994.9 - 0.0 - - - - - - -
02/09:38am 11.2 NW 18 29 995.4 - 0.0 - - - - - - -
02/09:30am 11.2 NW 18 27 995.5 - 0.0 - - - - - - -
02/09:00am 10.7 NNW 23 38 996.0 - 0.0 - - - - - - -
02/08:41am 10.4 NNW 23 34 996.5 - 0.0 - - - - - - -
02/08:30am 10.4 NNW 23 33 996.8 - 0.0 - - - - - - -
02/08:00am 10.3 NNW 20 34 997.2 - 0.0 - - - - - - -
02/07:30am 9.8 NNW 16 29 997.3 - 0.0 - - - - - - -
02/07:23am 9.7 NNW 15 29 997.5 - 0.0 - - - - - - -
02/07:00am 9.6 NNW 13 23 997.7 - 0.0 - - - - - - -
02/06:30am 9.4 N 11 21 998.2 - 0.0 - - - - - - -
02/06:00am 9.4 N 7 12 998.8 - 0.0 - - - - - - -
02/05:30am 9.3 N 12 17 999.1 - 0.0 - - - - - - -
02/05:00am 9.1 NNE 15 21 999.7 - 0.0 - - - - - - -
02/04:30am 9.1 N 15 22 1000.3 - 0.0 - - - - - - -
02/04:00am 9.0 N 14 19 1000.8 - 0.0 - - - - - - -
02/03:30am 9.0 N 14 19 1001.5 - 0.0 - - - - - - -
02/03:00am 9.1 N 15 20 1001.7 - 0.0 - - - - - - -
02/02:30am 9.0 N 15 22 1002.3 - 0.0 - - - - - - -
02/02:00am 8.9 N 15 20 1002.6 - 0.0 - - - - - - -

Other Formats:

Comma delimited format used in spreadsheet applications
http://www.bom.gov.au/fwo/IDT60701/IDT60701.94988.axf

JavaScript Object Notation format (JSON) in row-major order
http://www.bom.gov.au/fwo/IDT60701/IDT60701.94988.json